createdAt,value
2022-09-10T00:01:28.032Z,99981.31
2022-09-10T00:03:57.765Z,99975.16
2022-09-10T00:06:26.178Z,99979.34
2022-09-10T00:08:53.001Z,99977.75
2022-09-10T00:11:20.854Z,99978.56
2022-09-10T00:13:47.589Z,99972.97
2022-09-10T00:16:15.738Z,99972.69
2022-09-10T00:18:42.424Z,99974.25
2022-09-10T00:21:10.377Z,99969.75
2022-09-10T00:23:36.908Z,99970.28
2022-09-10T00:26:29.743Z,99971.88
2022-09-10T00:28:59.562Z,99978.25
2022-09-10T00:31:26.385Z,99976.75
2022-09-10T00:33:54.840Z,99980.59
2022-09-10T00:36:22.859Z,99968.50
2022-09-10T00:38:50.503Z,99965.09
2022-09-10T00:41:17.827Z,99954.50
2022-09-10T00:43:53.553Z,99963.41
2022-09-10T00:46:23.039Z,99957.41
2022-09-10T00:48:49.440Z,99961.88
2022-09-10T00:51:15.854Z,99951.81
2022-09-10T00:53:43.103Z,99945.44
2022-09-10T00:56:09.544Z,99952.34
2022-09-10T00:58:36.265Z,99946.25
2022-09-10T01:01:03.118Z,99953.94
2022-09-10T01:03:32.078Z,99948.44
2022-09-10T01:05:59.045Z,99948.63
2022-09-10T01:08:27.413Z,99950.25
2022-09-10T01:11:04.519Z,99941.78
2022-09-10T01:13:56.974Z,99935.59
2022-09-10T01:16:42.290Z,99939.25
2022-09-10T01:19:21.450Z,99940.53
2022-09-10T01:22:08.033Z,99926.31
2022-09-10T01:24:50.281Z,99913.19
2022-09-10T01:27:25.610Z,99906.34
2022-09-10T01:29:59.645Z,99906.56
2022-09-10T01:32:45.073Z,99890.38
2022-09-10T01:35:16.700Z,99886.34
2022-09-10T01:37:45.815Z,99889.81
2022-09-10T01:40:12.775Z,99886.63
2022-09-10T01:42:39.739Z,99883.47
2022-09-10T01:45:06.698Z,99884.56
2022-09-10T01:47:59.552Z,99888.34
2022-09-10T01:50:42.226Z,99885.31
2022-09-10T01:53:11.382Z,99883.97
2022-09-10T01:55:56.672Z,99884.72
2022-09-10T01:58:29.545Z,99889.94
2022-09-10T02:01:07.707Z,99895.88
2022-09-10T02:03:36.103Z,99886.16
2022-09-10T02:06:03.212Z,99871.94
2022-09-10T02:08:32.758Z,99862.69
2022-09-10T02:11:01.127Z,99857.97
2022-09-10T02:13:28.722Z,99860.56
2022-09-10T02:15:56.614Z,99857.47
2022-09-10T02:18:24.104Z,99840.16
2022-09-10T02:20:51.811Z,99830.69
2022-09-10T02:23:19.986Z,99831.19
2022-09-10T02:25:49.194Z,99838.81
2022-09-10T02:28:15.624Z,99856.69
2022-09-10T02:30:42.054Z,99843.53
2022-09-10T02:33:08.484Z,99841.72
2022-09-10T02:35:34.912Z,99842.19
2022-09-10T02:38:01.568Z,99852.69
2022-09-10T02:40:29.375Z,99855.91
2022-09-10T02:42:55.779Z,99848.56
2022-09-10T02:45:22.220Z,99857.78
2022-09-10T02:47:49.026Z,99847.53
2022-09-10T02:50:15.885Z,99843.34
2022-09-10T02:52:43.026Z,99843.34
2022-09-10T02:55:09.526Z,99836.19
2022-09-10T02:57:35.954Z,99828.56
2022-09-10T03:00:03.073Z,99832.75
2022-09-10T03:02:29.480Z,99825.91
2022-09-10T03:04:55.973Z,99829.09
2022-09-10T03:07:22.480Z,99844.91
2022-09-10T03:09:49.638Z,99848.59
2022-09-10T03:12:16.353Z,99855.19
2022-09-10T03:14:43.128Z,99853.09
2022-09-10T03:17:09.612Z,99865.72
2022-09-10T03:19:36.148Z,99857.28
2022-09-10T03:22:02.701Z,99860.47
2022-09-10T03:24:29.145Z,99854.66
2022-09-10T03:26:55.554Z,99870.69
2022-09-10T03:29:23.151Z,99861.50
2022-09-10T03:31:51.709Z,99865.63
2022-09-10T03:34:18.728Z,99871.19
2022-09-10T03:36:47.377Z,99864.81
2022-09-10T03:39:14.500Z,99873.47
2022-09-10T03:41:40.943Z,99861.16
2022-09-10T03:44:07.374Z,99861.41
2022-09-10T03:46:33.818Z,99847.66
2022-09-10T03:49:02.468Z,99847.19
2022-09-10T03:51:29.353Z,99845.62
2022-09-10T03:53:55.791Z,99850.63
2022-09-10T03:56:22.635Z,99859.81
2022-09-10T03:58:52.223Z,99857.19
2022-09-10T04:01:19.385Z,99861.63
2022-09-10T04:03:46.695Z,99872.13
2022-09-10T04:06:14.012Z,99862.56
2022-09-10T04:08:40.723Z,99863.31
2022-09-10T04:11:07.157Z,99864.63
2022-09-10T04:13:33.857Z,99862.00
2022-09-10T04:16:00.849Z,99861.44
2022-09-10T04:18:28.088Z,99858.66
2022-09-10T04:20:55.051Z,99859.00
2022-09-10T04:23:21.597Z,99860.31
2022-09-10T04:25:49.575Z,99870.84
2022-09-10T04:28:18.811Z,99867.69
2022-09-10T04:30:45.318Z,99878.78
2022-09-10T04:33:11.820Z,99874.56
2022-09-10T04:35:39.577Z,99874.25
2022-09-10T04:38:07.173Z,99876.81
2022-09-10T04:40:34.341Z,99876.81
2022-09-10T04:43:01.045Z,99871.06
2022-09-10T04:45:27.543Z,99873.69
2022-09-10T04:47:54.351Z,99875.31
2022-09-10T04:50:21.183Z,99881.91
2022-09-10T04:52:47.588Z,99884.78
2022-09-10T04:55:14.019Z,99885.28
2022-09-10T04:57:40.423Z,99881.91
2022-09-10T05:00:10.317Z,99882.44
2022-09-10T05:02:37.639Z,99882.19
2022-09-10T05:05:04.203Z,99887.63
2022-09-10T05:07:30.965Z,99884.81
2022-09-10T05:09:57.395Z,99893.91
2022-09-10T05:12:26.734Z,99890.66
2022-09-10T05:14:53.151Z,99891.75
2022-09-10T05:17:20.163Z,99882.84
2022-09-10T05:19:46.535Z,99866.81
2022-09-10T05:22:12.987Z,99866.56
2022-09-10T05:24:39.403Z,99872.91
2022-09-10T05:27:05.877Z,99874.03
2022-09-10T05:29:32.384Z,99871.72
2022-09-10T05:31:58.863Z,99875.88
2022-09-10T05:34:25.281Z,99874.66
2022-09-10T05:36:51.927Z,99876.53
2022-09-10T05:39:18.344Z,99889.41
2022-09-10T05:41:44.731Z,99895.44
2022-09-10T05:44:11.152Z,99890.88
2022-09-10T05:46:37.981Z,99904.59
2022-09-10T05:49:04.384Z,99899.34
2022-09-10T05:51:30.854Z,99911.28
2022-09-10T05:53:57.717Z,99911.16
2022-09-10T05:56:25.742Z,99911.13
2022-09-10T05:58:52.159Z,99908.31
2022-09-10T06:01:18.741Z,99906.22
2022-09-10T06:03:45.145Z,99909.56
2022-09-10T06:06:11.990Z,99912.19
2022-09-10T06:08:39.894Z,99905.22
2022-09-10T06:11:06.945Z,99904.56
2022-09-10T06:13:34.490Z,99897.59
2022-09-10T06:16:01.011Z,99898.31
2022-09-10T06:18:27.892Z,99907.56
2022-09-10T06:21:05.720Z,99909.66
2022-09-10T06:23:32.181Z,99901.69
2022-09-10T06:26:06.104Z,99901.00
2022-09-10T06:28:33.168Z,99905.44
2022-09-10T06:30:59.736Z,99905.09
2022-09-10T06:33:26.494Z,99911.69
2022-09-10T06:35:53.918Z,99911.34
2022-09-10T06:38:20.363Z,99900.59
2022-09-10T06:40:57.814Z,99896.25
2022-09-10T06:43:26.061Z,99895.31
2022-09-10T06:45:53.636Z,99907.28
2022-09-10T06:48:39.083Z,99896.88
2022-09-10T06:51:08.201Z,99898.47
2022-09-10T06:53:35.182Z,99896.69
2022-09-10T06:56:02.186Z,99904.56
2022-09-10T06:58:30.419Z,99902.91
2022-09-10T07:00:57.060Z,99908.31
2022-09-10T07:03:24.093Z,99912.41
2022-09-10T07:05:52.399Z,99922.38
2022-09-10T07:08:21.060Z,99924.97
2022-09-10T07:10:47.508Z,99923.59
2022-09-10T07:13:14.183Z,99922.25
2022-09-10T07:15:47.165Z,99928.41
2022-09-10T07:18:14.370Z,99922.06
2022-09-10T07:20:44.018Z,99922.06
2022-09-10T07:23:12.778Z,99926.38
2022-09-10T07:25:40.036Z,99937.88
2022-09-10T07:28:07.115Z,99937.06
2022-09-10T07:30:35.924Z,99932.66
2022-09-10T07:33:02.356Z,99934.13
2022-09-10T07:35:28.755Z,99943.44
2022-09-10T07:37:55.154Z,99941.22
2022-09-10T07:40:23.436Z,99954.63
2022-09-10T07:42:50.655Z,99949.47
2022-09-10T07:45:17.092Z,99946.47
2022-09-10T07:47:44.649Z,99943.03
2022-09-10T07:50:11.060Z,99952.78
2022-09-10T07:52:37.513Z,99955.13
2022-09-10T07:55:04.143Z,99966.25
2022-09-10T07:57:31.514Z,99965.97
2022-09-10T07:59:58.369Z,99979.69
2022-09-10T08:02:25.850Z,99987.38
2022-09-10T08:04:52.354Z,99983.69
2022-09-10T08:07:19.191Z,99989.19
2022-09-10T08:09:45.590Z,99987.81
2022-09-10T08:12:12.020Z,99984.97
2022-09-10T08:14:38.509Z,99980.16
2022-09-10T08:17:05.692Z,99994.56
2022-09-10T08:19:34.104Z,99993.47
2022-09-10T08:22:00.605Z,99979.06
2022-09-10T08:24:27.702Z,99996.44
2022-09-10T08:26:54.619Z,99983.91
2022-09-10T08:29:21.062Z,99986.53
2022-09-10T08:31:47.881Z,99994.50
2022-09-10T08:34:14.287Z,99991.31
2022-09-10T08:36:40.695Z,99995.97
2022-09-10T08:39:08.544Z,99995.25
2022-09-10T08:41:35.773Z,100003.47
2022-09-10T08:44:11.631Z,99996.75
2022-09-10T08:46:55.630Z,100004.91
2022-09-10T08:49:22.045Z,99999.22
2022-09-10T08:51:50.905Z,99999.53
2022-09-10T08:54:34.480Z,100004.03
2022-09-10T08:57:02.199Z,99996.69
2022-09-10T08:59:31.040Z,100002.06
2022-09-10T09:02:01.515Z,99997.53
2022-09-10T09:04:28.747Z,99994.41
2022-09-10T09:06:58.713Z,99990.72
2022-09-10T09:09:25.238Z,99985.28
2022-09-10T09:11:51.602Z,99972.41
2022-09-10T09:14:20.756Z,99986.78
2022-09-10T09:16:53.381Z,99987.44
2022-09-10T09:19:29.378Z,99982.34
2022-09-10T09:21:56.385Z,99979.06
2022-09-10T09:24:25.098Z,99990.94
2022-09-10T09:26:54.614Z,99986.69
2022-09-10T09:29:47.306Z,99989.59
2022-09-10T09:32:16.224Z,99980.75
2022-09-10T09:34:50.567Z,99979.72
2022-09-10T09:37:19.217Z,99985.25
2022-09-10T09:39:49.274Z,99976.88
2022-09-10T09:42:34.094Z,99983.81
2022-09-10T09:45:27.989Z,99976.50
2022-09-10T09:47:54.660Z,99980.03
2022-09-10T09:50:21.504Z,99972.25
2022-09-10T09:52:48.043Z,99975.81
2022-09-10T09:55:29.433Z,99979.59
2022-09-10T09:58:14.755Z,99986.16
2022-09-10T10:00:41.200Z,99981.84
2022-09-10T10:03:14.615Z,99977.00
2022-09-10T10:05:42.408Z,99980.75
2022-09-10T10:08:28.894Z,99976.09
2022-09-10T10:10:55.709Z,99967.69
2022-09-10T10:13:22.562Z,99971.75
2022-09-10T10:15:49.108Z,99968.16
2022-09-10T10:18:28.915Z,99958.50
2022-09-10T10:21:13.560Z,99963.37
2022-09-10T10:23:42.133Z,99965.38
2022-09-10T10:26:22.434Z,99950.81
2022-09-10T10:28:50.651Z,99949.31
2022-09-10T10:31:17.845Z,99954.56
2022-09-10T10:34:04.452Z,99956.59
2022-09-10T10:36:39.339Z,99952.50
2022-09-10T10:39:24.343Z,99952.66
2022-09-10T10:42:15.717Z,99964.75
2022-09-10T10:44:54.403Z,99954.06
2022-09-10T10:47:37.749Z,99947.37
2022-09-10T10:50:07.256Z,99931.56
2022-09-10T10:52:33.996Z,99940.06
2022-09-10T10:55:00.371Z,99941.16
2022-09-10T10:57:45.223Z,99938.63
2022-09-10T11:00:15.891Z,99940.91
2022-09-10T11:02:42.306Z,99933.34
2022-09-10T11:05:25.827Z,99935.44
2022-09-10T11:07:52.857Z,99933.34
2022-09-10T11:10:32.058Z,99930.59
2022-09-10T11:13:15.101Z,99938.13
2022-09-10T11:15:49.000Z,99935.16
2022-09-10T11:18:19.419Z,99929.59
2022-09-10T11:20:53.595Z,99933.91
2022-09-10T11:23:26.190Z,99934.22
2022-09-10T11:25:56.066Z,99930.97
2022-09-10T11:28:27.123Z,99911.59
2022-09-10T11:30:58.492Z,99924.56
2022-09-10T11:33:33.248Z,99934.28
2022-09-10T11:36:05.947Z,99932.56
2022-09-10T11:38:52.986Z,99917.87
2022-09-10T11:41:22.904Z,99913.47
2022-09-10T11:43:52.165Z,99919.69
2022-09-10T11:46:22.009Z,99923.13
2022-09-10T11:48:51.518Z,99916.94
2022-09-10T11:51:24.302Z,99913.78
2022-09-10T11:53:51.245Z,99917.75
2022-09-10T11:56:29.958Z,99913.41
2022-09-10T11:59:15.267Z,99911.00
2022-09-10T12:02:14.300Z,99914.66
2022-09-10T12:04:59.321Z,99902.53
2022-09-10T12:07:36.148Z,99918.66
2022-09-10T12:10:12.260Z,99913.59
2022-09-10T12:12:45.822Z,99921.12
2022-09-10T12:15:15.268Z,99919.69
2022-09-10T12:17:42.693Z,99923.50
2022-09-10T12:20:15.618Z,99914.12
2022-09-10T12:22:42.750Z,99912.69
2022-09-10T12:25:23.970Z,99919.91
2022-09-10T12:27:52.170Z,99915.38
2022-09-10T12:30:42.513Z,99910.94
2022-09-10T12:33:11.939Z,99915.22
2022-09-10T12:35:43.839Z,99912.88
2022-09-10T12:38:29.141Z,99909.59
2022-09-10T12:40:56.366Z,99903.75
2022-09-10T12:43:41.057Z,99900.91
2022-09-10T12:46:07.960Z,99900.63
2022-09-10T12:48:55.423Z,99903.13
2022-09-10T12:51:40.696Z,99898.69
2022-09-10T12:54:26.153Z,99894.69
2022-09-10T12:56:59.498Z,99891.25
2022-09-10T12:59:35.051Z,99886.87
2022-09-10T13:02:01.685Z,99889.31
2022-09-10T13:04:29.911Z,99874.41
2022-09-10T13:07:01.511Z,99875.81
2022-09-10T13:09:37.849Z,99879.78
2022-09-10T13:12:16.656Z,99879.66
2022-09-10T13:14:46.068Z,99875.41
2022-09-10T13:17:46.548Z,99872.44
2022-09-10T13:20:15.378Z,99875.56
2022-09-10T13:22:56.972Z,99874.44
2022-09-10T13:25:30.055Z,99880.75
2022-09-10T13:27:57.142Z,99873.69
2022-09-10T13:30:23.983Z,99872.59
2022-09-10T13:32:55.233Z,99884.34
2022-09-10T13:35:41.293Z,99878.56
2022-09-10T13:38:16.256Z,99877.25
2022-09-10T13:40:43.330Z,99871.94
2022-09-10T13:43:28.418Z,99869.22
2022-09-10T13:46:04.958Z,99870.25
2022-09-10T13:48:43.318Z,99871.69
2022-09-10T13:51:15.775Z,99866.50
2022-09-10T13:53:44.298Z,99853.97
2022-09-10T13:56:17.880Z,99858.13
2022-09-10T13:58:49.159Z,99851.09
2022-09-10T14:01:15.807Z,99859.59
2022-09-10T14:03:42.248Z,99852.69
2022-09-10T14:06:10.583Z,99854.66
2022-09-10T14:08:44.554Z,99861.75
2022-09-10T14:11:16.944Z,99865.69
2022-09-10T14:13:43.330Z,99856.50
2022-09-10T14:16:15.254Z,99860.81
2022-09-10T14:18:45.010Z,99866.50
2022-09-10T14:21:12.566Z,99866.34
2022-09-10T14:23:42.543Z,99861.19
2022-09-10T14:26:10.051Z,99865.38
2022-09-10T14:28:48.693Z,99860.88
2022-09-10T14:31:22.934Z,99859.53
2022-09-10T14:33:49.602Z,99860.59
2022-09-10T14:36:28.609Z,99870.94
2022-09-10T14:39:06.761Z,99856.87
2022-09-10T14:41:34.576Z,99866.03
2022-09-10T14:44:14.095Z,99865.56
2022-09-10T14:46:49.187Z,99850.84
2022-09-10T14:49:17.427Z,99862.91
2022-09-10T14:51:44.241Z,99869.94
2022-09-10T14:54:14.954Z,99857.41
2022-09-10T14:56:43.845Z,99873.41
2022-09-10T14:59:30.416Z,99867.12
2022-09-10T15:01:57.571Z,99872.81
2022-09-10T15:04:27.998Z,99860.22
2022-09-10T15:07:00.753Z,99868.25
2022-09-10T15:09:27.919Z,99866.34
2022-09-10T15:12:03.452Z,99863.44
2022-09-10T15:14:30.135Z,99870.16
2022-09-10T15:16:56.599Z,99876.53
2022-09-10T15:19:23.085Z,99871.00
2022-09-10T15:21:50.125Z,99872.41
2022-09-10T15:24:18.024Z,99870.22
2022-09-10T15:26:44.540Z,99871.06
2022-09-10T15:29:11.392Z,99864.91
2022-09-10T15:31:38.493Z,99880.44
2022-09-10T15:34:06.514Z,99875.16
2022-09-10T15:36:33.621Z,99877.91
2022-09-10T15:39:00.067Z,99896.69
2022-09-10T15:41:26.545Z,99891.78
2022-09-10T15:43:52.960Z,99896.41
2022-09-10T15:46:21.930Z,99889.63
2022-09-10T15:48:49.829Z,99898.09
2022-09-10T15:51:21.345Z,99892.72
2022-09-10T15:53:48.337Z,99895.00
2022-09-10T15:56:15.387Z,99901.72
2022-09-10T15:58:43.286Z,99901.22
2022-09-10T16:01:15.019Z,99905.16
2022-09-10T16:03:48.729Z,99904.88
2022-09-10T16:06:15.807Z,99907.34
2022-09-10T16:08:42.409Z,99915.44
2022-09-10T16:11:11.799Z,99917.94
2022-09-10T16:13:39.793Z,99917.81
2022-09-10T16:16:11.925Z,99922.81
2022-09-10T16:18:38.436Z,99925.47
2022-09-10T16:21:26.148Z,99923.69
2022-09-10T16:23:53.436Z,99934.28
2022-09-10T16:26:22.041Z,99937.03
2022-09-10T16:28:55.363Z,99935.88
2022-09-10T16:31:23.418Z,99937.78
2022-09-10T16:33:54.556Z,99935.66
2022-09-10T16:36:21.432Z,99935.84
2022-09-10T16:38:52.096Z,99929.53
2022-09-10T16:41:18.493Z,99934.34
2022-09-10T16:43:44.893Z,99922.81
2022-09-10T16:46:12.283Z,99929.25
2022-09-10T16:48:39.700Z,99927.03
2022-09-10T16:51:10.898Z,99931.75
2022-09-10T16:53:38.750Z,99931.78
2022-09-10T16:56:07.402Z,99929.84
2022-09-10T16:58:35.998Z,99930.00
2022-09-10T17:01:03.886Z,99935.06
2022-09-10T17:03:31.433Z,99932.78
2022-09-10T17:05:58.451Z,99940.47
2022-09-10T17:08:25.470Z,99938.63
2022-09-10T17:10:52.007Z,99937.12
2022-09-10T17:13:19.003Z,99938.34
2022-09-10T17:15:45.481Z,99944.88
2022-09-10T17:18:12.194Z,99947.31
2022-09-10T17:20:39.596Z,99947.03
2022-09-10T17:23:06.789Z,99957.97
2022-09-10T17:25:33.266Z,99964.91
2022-09-10T17:27:59.694Z,99966.28
2022-09-10T17:30:26.369Z,99967.41
2022-09-10T17:32:52.806Z,99976.59
2022-09-10T17:35:19.213Z,99971.19
2022-09-10T17:37:45.910Z,99978.63
2022-09-10T17:40:12.681Z,99979.81
2022-09-10T17:42:39.375Z,99969.87
2022-09-10T17:45:06.336Z,99979.47
2022-09-10T17:47:33.126Z,99983.09
2022-09-10T17:49:59.539Z,99995.53
2022-09-10T17:52:32.451Z,99997.66
2022-09-10T17:54:58.880Z,100006.69
2022-09-10T17:57:25.311Z,100005.41
2022-09-10T17:59:51.854Z,100000.78
2022-09-10T18:02:18.957Z,100012.34
2022-09-10T18:04:48.618Z,100019.09
2022-09-10T18:07:15.020Z,100012.25
2022-09-10T18:09:41.685Z,100017.22
2022-09-10T18:12:08.244Z,100019.25
2022-09-10T18:14:34.670Z,100025.47
2022-09-10T18:17:01.186Z,100028.72
2022-09-10T18:19:27.600Z,100036.66
2022-09-10T18:21:54.025Z,100042.78
2022-09-10T18:24:24.545Z,100041.00
2022-09-10T18:26:53.265Z,100043.13
2022-09-10T18:29:21.229Z,100044.13
2022-09-10T18:31:49.319Z,100039.69
2022-09-10T18:34:22.631Z,100038.91
2022-09-10T18:36:53.501Z,100038.41
2022-09-10T18:39:20.669Z,100045.03
2022-09-10T18:41:47.368Z,100051.34
2022-09-10T18:44:18.565Z,100046.34
2022-09-10T18:46:45.775Z,100059.84
2022-09-10T18:49:20.791Z,100047.72
2022-09-10T18:51:48.005Z,100044.31
2022-09-10T18:54:15.307Z,100052.22
2022-09-10T18:56:42.404Z,100050.63
2022-09-10T18:59:13.262Z,100042.47
2022-09-10T19:01:46.100Z,100046.16
2022-09-10T19:04:14.479Z,100039.56
2022-09-10T19:06:42.443Z,100040.34
2022-09-10T19:09:10.873Z,100032.41
2022-09-10T19:11:38.854Z,100035.59
2022-09-10T19:14:06.812Z,100032.97
2022-09-10T19:16:35.051Z,100027.19
2022-09-10T19:19:03.394Z,100022.19
2022-09-10T19:21:30.989Z,100022.72
2022-09-10T19:23:59.449Z,100018.22
2022-09-10T19:26:27.524Z,100010.84
2022-09-10T19:28:55.579Z,100013.22
2022-09-10T19:31:22.062Z,100009.78
2022-09-10T19:33:54.088Z,100022.69
2022-09-10T19:36:20.516Z,100014.00
2022-09-10T19:38:47.015Z,100014.81
2022-09-10T19:41:18.896Z,100018.22
2022-09-10T19:43:49.397Z,100018.22
2022-09-10T19:46:16.589Z,100021.13
2022-09-10T19:48:44.297Z,100013.75
2022-09-10T19:51:13.331Z,100011.38
2022-09-10T19:53:40.524Z,100007.44
2022-09-10T19:56:08.012Z,100011.09
2022-09-10T19:58:37.937Z,100012.94
2022-09-10T20:01:11.407Z,100020.84
2022-09-10T20:03:38.257Z,100021.91
2022-09-10T20:06:04.735Z,100020.59
2022-09-10T20:08:36.633Z,100023.78
2022-09-10T20:11:06.613Z,100025.59
2022-09-10T20:13:33.843Z,100032.94
2022-09-10T20:16:01.123Z,100022.97
2022-09-10T20:18:27.740Z,100037.19
2022-09-10T20:20:55.205Z,100040.84
2022-09-10T20:23:22.318Z,100033.47
2022-09-10T20:25:48.778Z,100034.22
2022-09-10T20:28:15.205Z,100036.34
2022-09-10T20:30:41.865Z,100032.12
2022-09-10T20:33:08.245Z,100037.34
2022-09-10T20:35:34.646Z,100032.84
2022-09-10T20:38:01.308Z,100039.94
2022-09-10T20:40:27.703Z,100050.44
2022-09-10T20:42:54.121Z,100045.44
2022-09-10T20:45:22.087Z,100043.34
2022-09-10T20:47:48.536Z,100047.56
2022-09-10T20:50:15.063Z,100050.06
2022-09-10T20:52:44.490Z,100055.91
2022-09-10T20:55:10.918Z,100060.56
2022-09-10T20:57:37.311Z,100062.53
2022-09-10T21:00:04.054Z,100066.66
2022-09-10T21:02:30.569Z,100059.09
2022-09-10T21:04:58.183Z,100068.00
2022-09-10T21:07:24.609Z,100062.75
2022-09-10T21:09:51.030Z,100064.28
2022-09-10T21:12:17.613Z,100057.37
2022-09-10T21:14:44.105Z,100053.44
2022-09-10T21:17:10.514Z,100053.69
2022-09-10T21:19:36.979Z,100053.41
2022-09-10T21:22:03.464Z,100049.50
2022-09-10T21:24:30.106Z,100052.12
2022-09-10T21:26:56.757Z,100054.13
2022-09-10T21:29:23.252Z,100054.56
2022-09-10T21:31:50.732Z,100057.00
2022-09-10T21:34:20.383Z,100051.88
2022-09-10T21:36:46.809Z,100055.78
2022-09-10T21:39:14.671Z,100055.16
2022-09-10T21:41:42.645Z,100049.34
2022-09-10T21:44:16.022Z,100046.75
2022-09-10T21:46:43.503Z,100042.81
2022-09-10T21:49:10.156Z,100053.06
2022-09-10T21:51:36.862Z,100051.66
2022-09-10T21:54:04.718Z,100059.62
2022-09-10T21:56:31.429Z,100061.13
2022-09-10T21:58:59.122Z,100062.75
2022-09-10T22:01:27.814Z,100072.25
2022-09-10T22:03:59.604Z,100062.00
2022-09-10T22:06:27.238Z,100065.13
2022-09-10T22:08:55.185Z,100067.78
2022-09-10T22:11:27.101Z,100076.44
2022-09-10T22:13:54.722Z,100078.19
2022-09-10T22:16:22.718Z,100084.03
2022-09-10T22:18:49.924Z,100084.13
2022-09-10T22:21:16.894Z,100087.44
2022-09-10T22:23:43.849Z,100087.59
2022-09-10T22:26:17.510Z,100081.94
2022-09-10T22:28:44.516Z,100086.31
2022-09-10T22:31:19.115Z,100087.06
2022-09-10T22:33:46.594Z,100096.19
2022-09-10T22:36:18.721Z,100087.31
2022-09-10T22:38:48.806Z,100101.34
2022-09-10T22:41:15.905Z,100096.59
2022-09-10T22:43:42.883Z,100096.00
2022-09-10T22:46:09.748Z,100093.12
2022-09-10T22:48:40.011Z,100096.28
2022-09-10T22:51:07.106Z,100090.72
2022-09-10T22:53:34.351Z,100096.28
2022-09-10T22:56:02.192Z,100097.56
2022-09-10T22:58:28.772Z,100090.31
2022-09-10T23:00:55.216Z,100092.09
2022-09-10T23:03:21.881Z,100097.63
2022-09-10T23:05:48.699Z,100102.63
2022-09-10T23:08:15.088Z,100105.16
2022-09-10T23:10:41.500Z,100108.69
2022-09-10T23:13:07.911Z,100107.88
2022-09-10T23:15:34.706Z,100103.22
2022-09-10T23:18:01.139Z,100110.19
2022-09-10T23:20:27.511Z,100104.47
2022-09-10T23:22:53.923Z,100099.78
2022-09-10T23:25:20.407Z,100102.66
2022-09-10T23:27:48.471Z,100096.44
2022-09-10T23:30:16.079Z,100102.97
2022-09-10T23:32:43.735Z,100093.94
2022-09-10T23:35:10.159Z,100101.25
2022-09-10T23:37:36.597Z,100094.41
2022-09-10T23:40:03.637Z,100090.03
2022-09-10T23:42:31.286Z,100091.41
2022-09-10T23:44:57.678Z,100090.59
2022-09-10T23:47:24.093Z,100080.53
2022-09-10T23:49:50.510Z,100088.66
2022-09-10T23:52:17.619Z,100090.44
2022-09-10T23:54:44.095Z,100082.94
2022-09-10T23:57:10.947Z,100085.34
2022-09-10T23:59:37.419Z,100089.03
